Aviation Digital Data Service (ADDS)

Output produced by METARs form (1738 UTC 27 May 2017)
found at http://www.aviationweather.gov/adds/metars/
 
FQBR 271700Z /////KT 9999 FEW020 25/22 Q1013
TAF FQBR 271600Z 2718/2824 19010KT 9999 SCT020 
     BECMG 2806/2808 33010KT 
     BECMG 2812/2814 15012KT TN21/2802ZTX28/2812Z
       
FQCH 271700Z 13006KT 9999 FEW020 21/19 Q1018
TAF FQCH 271600Z 2718/2818 26008KT 9999 FEW020 
     BECMG 2812/2814 16008KT TN15/2802ZTX28/2812Z
       
FQIN 271300Z 00000KT 9999 FEW020 29/14 Q1013
TAF FQIN 271600Z 2718/2818 09010KT 9999 FEW025 
     BECMG 2800/2802 23018KT 
     BECMG 2812/2814 14016KT TN20/2802ZTX30/2812Z
       
TAF FQLC 271600Z 2718/2818 19008KT 9999 FEW020 
     BECMG 2806/2808 34010KT 
     BECMG 2812/2814 08008KT TN15/2802ZTX24/2812Z
       
FQMA 271700Z 14005KT CAVOK 23/20 Q1015 NOSIG
TAF FQMA 271600Z 2718/2824 20010KT 9999 SCT020 
     BECMG 2800/2802 23020G30KT 
     BECMG 2812/2814 16015KT TN16/2802ZTX30/2812Z
       
TAF FQNC 271600Z 2718/2818 19010KT 9999 BKN020 
     BECMG 2806/2808 34008KT 
     BECMG 2812/2814 10010KT TN20/2802ZTX28/2812Z
       
FQNP 271700Z 09007KT 9999 BKN020 26/19 Q1016
TAF FQNP 271600Z 2718/2824 19010KT 9999 BKN020 
     BECMG 2806/2808 34008KT 
     BECMG 2812/2814 10010KT TN21/2802ZTX29/2812Z
       
FQPB 271700Z 11005KT 9999 FEW020 27/22 Q1016
TAF FQPB 271600Z 2718/2818 20010KT 9999 BKN020 
     BECMG 2810/2812 14008KT TN22/2802ZTX29/2812Z
       
TAF FQQL 271600Z 2718/2818 08008KT 9999 FEW020 
     BECMG 2806/2808 19008KT 
     BECMG 2812/2814 10010KT TN20/2802ZTX31/2812Z
       
FQTT 271700Z 02003KT 9999 FEW020 24/16 Q1013
TAF FQTT 271600Z 2718/2818 24008KT 9999 FEW020 
     BECMG 2810/2812 16008KT TN20/2802ZTX32/2812Z
       
TAF FQVL 271600Z 2718/2818 09010KT 9999 FEW025 
     BECMG 2800/2802 23018KT 
     BECMG 2812/2814 14016KT TN19/2802ZTX28/2812Z